Time;durP1;ratioP1;P1;durP2;ratioP2;P2;SDS_P1;SDS_P2;PMS_P1;PMS_P2;Temp;Humidity;BMP_temperature;BMP_pressure;BME280_temperature;BME280_humidity;BME280_pressure;Samples;Min_cycle;Max_cycle;Signal;HPM_P1;HPM_P2
2022/08/05 00:01:26;;;;;;;9.43;4.22;;;;;;;28.49;37.57;98032.50;4502326;31;20088;-80
2022/08/05 00:03:55;;;;;;;7.82;4.32;;;;;;;28.27;37.00;98028.84;4502141;31;20630;-80
2022/08/05 00:06:23;;;;;;;9.18;4.72;;;;;;;28.23;37.38;98033.69;4501838;31;20108;-81
2022/08/05 00:08:59;;;;;;;11.10;4.78;;;;;;;28.14;38.16;98025.97;4502344;31;20092;-80
2022/08/05 00:11:27;;;;;;;11.68;4.85;;;;;;;27.89;39.11;98026.13;4501820;31;20106;-81
2022/08/05 00:14:02;;;;;;;8.75;4.62;;;;;;;27.49;40.24;98027.16;4502176;31;20080;-80
2022/08/05 00:16:38;;;;;;;8.10;4.07;;;;;;;26.99;41.39;98020.34;4502181;31;20160;-80
2022/08/05 00:19:18;;;;;;;9.20;4.75;;;;;;;27.24;40.17;98026.44;4501751;31;20114;-81
2022/08/05 00:21:48;;;;;;;14.02;5.22;;;;;;;27.83;39.10;98023.34;4502044;31;20080;-80
2022/08/05 00:24:15;;;;;;;11.52;4.93;;;;;;;27.93;39.29;98019.47;4501866;31;20532;-80
2022/08/05 00:26:51;;;;;;;8.85;3.70;;;;;;;27.79;39.71;98024.72;4501639;31;20099;-81
2022/08/05 00:29:20;;;;;;;8.80;4.18;;;;;;;27.57;37.89;98021.00;4501923;31;20550;-80
2022/08/05 00:31:52;;;;;;;10.45;4.50;;;;;;;27.49;38.62;98021.03;4502031;31;20143;-80
2022/08/05 00:34:40;;;;;;;8.55;4.10;;;;;;;27.23;38.53;98019.50;4501645;31;20140;-80
2022/08/05 00:37:27;;;;;;;8.80;3.92;;;;;;;27.01;39.54;98017.53;4501837;31;20104;-80
2022/08/05 00:40:14;;;;;;;12.65;4.07;;;;;;;27.25;38.81;98016.66;4501380;31;20100;-81
2022/08/05 00:42:43;;;;;;;10.73;4.12;;;;;;;26.91;39.05;98012.44;4501801;31;20076;-80
2022/08/05 00:45:15;;;;;;;10.10;4.40;;;;;;;26.67;39.36;98009.84;4501643;31;20466;-80
2022/08/05 00:47:54;;;;;;;10.68;5.18;;;;;;;26.69;39.41;98010.47;4501302;31;20099;-81
2022/08/05 00:50:23;;;;;;;13.13;5.43;;;;;;;27.67;38.18;98014.50;4503284;31;20431;-80
2022/08/05 00:52:52;;;;;;;11.75;5.05;;;;;;;27.65;39.23;98013.03;4503991;31;20145;-80
2022/08/05 00:55:22;;;;;;;10.02;4.12;;;;;;;27.64;38.90;98016.63;4503717;31;20407;-80
2022/08/05 00:58:12;;;;;;;11.23;4.40;;;;;;;27.70;37.30;98013.31;4503795;31;20442;-80
2022/08/05 01:00:40;;;;;;;11.35;4.43;;;;;;;27.83;37.62;98012.75;4503648;31;20106;-81
2022/08/05 01:03:09;;;;;;;10.18;4.15;;;;;;;27.46;38.42;98006.31;4504008;31;20123;-80
2022/08/05 01:05:49;;;;;;;10.45;4.10;;;;;;;27.58;38.00;97998.78;4503858;31;20072;-80
2022/08/05 01:08:17;;;;;;;10.27;4.47;;;;;;;27.58;38.19;98006.75;4503531;31;20092;-81
2022/08/05 01:11:12;;;;;;;8.82;4.43;;;;;;;26.97;39.49;98003.81;4504047;31;20103;-80
2022/08/05 01:14:00;;;;;;;9.68;4.60;;;;;;;26.40;40.82;98014.50;4503755;31;20152;-80
2022/08/05 01:16:29;;;;;;;7.82;4.00;;;;;;;26.30;41.30;98013.81;4502228;31;20124;-81
2022/08/05 01:19:05;;;;;;;8.98;4.60;;;;;;;27.09;39.35;98002.47;4503792;31;20505;-80
2022/08/05 01:21:48;;;;;;;11.55;4.80;;;;;;;27.94;37.76;98007.03;4503604;31;20374;-81
2022/08/05 01:24:34;;;;;;;8.30;4.40;;;;;;;27.63;38.38;98009.69;4503585;31;20518;-80
2022/08/05 01:27:39;;;;;;;11.40;4.82;;;;;;;26.47;40.58;98012.00;4503585;31;20422;-80
2022/08/05 01:30:21;;;;;;;11.70;4.97;;;;;;;27.67;38.02;97997.78;4503396;31;20112;-81
2022/08/05 01:33:04;;;;;;;11.93;5.15;;;;;;;26.95;40.15;98003.16;4502833;31;20119;-80
2022/08/05 01:35:37;;;;;;;14.52;5.12;;;;;;;26.45;41.25;98012.16;4503302;31;20088;-81
2022/08/05 01:38:20;;;;;;;11.15;4.57;;;;;;;26.38;41.40;98013.03;4503700;31;20099;-80
2022/08/05 01:40:57;;;;;;;10.50;5.23;;;;;;;27.81;38.12;98006.81;4503633;31;20348;-80
2022/08/05 01:43:26;;;;;;;13.50;5.90;;;;;;;27.48;38.60;98011.44;4502043;31;20131;-81
2022/08/05 01:45:53;;;;;;;10.13;4.70;;;;;;;27.09;39.56;98006.94;4502505;31;20179;-81
2022/08/05 01:48:24;;;;;;;12.02;5.37;;;;;;;27.04;39.48;98010.13;4502423;31;20140;-81
2022/08/05 01:50:54;;;;;;;11.60;5.07;;;;;;;26.57;40.49;98009.19;4502047;31;20127;-81
2022/08/05 01:53:22;;;;;;;13.80;6.57;;;;;;;27.00;39.89;98013.22;4502329;31;20451;-80
2022/08/05 01:56:10;;;;;;;14.70;7.07;;;;;;;27.15;40.08;98003.63;4502093;31;20092;-80
2022/08/05 01:58:38;;;;;;;16.12;6.32;;;;;;;26.95;41.34;98007.62;4502032;31;20140;-81
2022/08/05 02:01:12;;;;;;;13.73;6.65;;;;;;;27.25;40.51;98011.37;4501589;31;20140;-80
2022/08/05 02:03:44;;;;;;;15.63;6.90;;;;;;;27.66;39.91;98009.38;4503043;31;20110;-81
2022/08/05 02:06:11;;;;;;;12.35;5.90;;;;;;;26.89;41.54;98003.81;4502268;31;20091;-80
2022/08/05 02:08:58;;;;;;;10.95;5.70;;;;;;;27.63;39.75;98005.19;4503691;31;20084;-80
2022/08/05 02:11:47;;;;;;;10.63;4.65;;;;;;;27.55;39.25;98004.44;4501924;31;20111;-81
2022/08/05 02:14:31;;;;;;;9.68;5.03;;;;;;;27.33;38.50;98000.75;4503345;31;20114;-81
2022/08/05 02:17:11;;;;;;;12.45;5.35;;;;;;;27.08;39.07;98002.66;4502302;31;20156;-81
2022/08/05 02:20:00;;;;;;;10.00;5.17;;;;;;;26.71;40.01;98005.88;4501972;31;20084;-81
2022/08/05 02:22:33;;;;;;;11.18;5.47;;;;;;;26.96;39.65;97999.50;4502226;31;20207;-80
2022/08/05 02:25:21;;;;;;;;;;;;;;;27.16;39.72;98001.81;4502167;31;20178;-81
2022/08/05 02:27:52;;;;;;;9.60;4.75;;;;;;;26.23;41.40;98003.06;4503299;31;19972;-81
2022/08/05 02:30:32;;;;;;;8.43;4.10;;;;;;;26.85;39.14;97999.88;4503172;31;20084;-80
2022/08/05 02:33:01;;;;;;;10.25;4.10;;;;;;;26.81;38.78;97995.94;4503056;31;20134;-81
2022/08/05 02:35:29;;;;;;;8.70;4.30;;;;;;;26.67;39.18;98000.06;4501937;31;20103;-80
2022/08/05 02:38:03;;;;;;;14.68;4.32;;;;;;;25.76;40.53;97999.38;4503285;31;20149;-80
2022/08/05 02:40:30;;;;;;;8.38;3.90;;;;;;;26.02;40.12;97994.78;4501738;31;20084;-81
2022/08/05 02:42:57;;;;;;;11.60;4.40;;;;;;;26.53;38.94;97990.19;4502121;31;20159;-80
2022/08/05 02:45:25;;;;;;;9.82;4.55;;;;;;;25.48;40.83;97998.78;4503126;31;20103;-80
2022/08/05 02:47:55;;;;;;;9.27;4.18;;;;;;;25.22;42.03;97994.41;4501720;31;20087;-81
2022/08/05 02:50:40;;;;;;;9.57;4.30;;;;;;;25.39;41.90;97979.44;4503188;31;20084;-80
2022/08/05 02:53:11;;;;;;;10.63;4.35;;;;;;;26.24;40.45;97994.13;4501857;31;20095;-81
2022/08/05 02:55:49;;;;;;;11.38;4.75;;;;;;;25.37;42.32;97984.06;4503129;31;20091;-81
2022/08/05 02:58:21;;;;;;;11.57;4.80;;;;;;;25.56;42.59;97975.03;4503071;31;20401;-81
2022/08/05 03:00:54;;;;;;;11.93;4.65;;;;;;;25.27;43.39;97980.72;4502761;31;20471;-81
2022/08/05 03:03:22;;;;;;;9.63;4.70;;;;;;;25.98;42.04;97969.69;4502937;31;20134;-80
2022/08/05 03:05:50;;;;;;;9.65;4.37;;;;;;;26.44;41.25;97986.72;4502986;31;20110;-80
2022/08/05 03:08:38;;;;;;;10.35;4.68;;;;;;;26.69;39.75;97974.28;4501540;31;20140;-81
2022/08/05 03:11:22;;;;;;;13.30;5.90;;;;;;;25.57;41.85;97969.59;4502884;31;20588;-80
2022/08/05 03:14:09;;;;;;;11.32;4.97;;;;;;;26.53;41.49;97969.00;4501517;31;20084;-81
2022/08/05 03:16:39;;;;;;;11.30;5.30;;;;;;;26.11;41.69;97964.72;4503039;31;20096;-80
2022/08/05 03:19:06;;;;;;;10.80;4.90;;;;;;;25.67;42.78;97966.81;4502727;31;20143;-80
2022/08/05 03:21:53;;;;;;;8.15;4.60;;;;;;;25.64;43.23;97964.50;4501865;31;20076;-81
2022/08/05 03:24:21;;;;;;;9.57;4.78;;;;;;;26.16;41.98;97975.66;4502799;31;20150;-80
2022/08/05 03:26:57;;;;;;;9.77;4.97;;;;;;;25.62;42.86;97971.72;4501683;31;20172;-80
2022/08/05 03:29:25;;;;;;;11.48;4.70;;;;;;;25.89;42.17;97960.91;4502462;31;20106;-81
2022/08/05 03:32:12;;;;;;;9.25;4.53;;;;;;;25.90;41.73;97964.38;4502795;31;20167;-80
2022/08/05 03:34:42;;;;;;;11.73;5.00;;;;;;;26.51;40.99;97965.72;4502629;31;20100;-80
2022/08/05 03:37:17;;;;;;;;;;;;;;;25.67;42.67;97969.44;4501994;31;20176;-81
2022/08/05 03:39:58;;;;;;;11.63;4.95;;;;;;;25.98;42.48;97974.16;4501600;31;19968;-80
2022/08/05 03:42:29;;;;;;;11.55;5.45;;;;;;;25.61;43.45;97967.44;4502399;31;20076;-81
2022/08/05 03:44:58;;;;;;;10.63;5.03;;;;;;;26.21;42.60;97975.97;4502458;31;20092;-80
2022/08/05 03:47:45;;;;;;;10.20;4.55;;;;;;;26.58;40.39;97971.97;4502320;31;20445;-80
2022/08/05 03:50:14;;;;;;;10.35;4.97;;;;;;;25.91;41.51;97971.31;4502109;31;20087;-81
2022/08/05 03:52:53;;;;;;;9.60;5.35;;;;;;;25.39;42.91;97974.97;4502481;31;20132;-81
2022/08/05 03:55:46;;;;;;;10.15;5.47;;;;;;;25.58;43.64;97978.34;4502310;31;20468;-80
2022/08/05 03:58:35;;;;;;;9.95;4.93;;;;;;;26.57;41.65;97970.31;4502107;31;20083;-80
2022/08/05 04:01:03;;;;;;;12.25;4.85;;;;;;;26.59;42.02;97967.53;4501178;31;20107;-80
2022/08/05 04:03:34;;;;;;;8.27;4.40;;;;;;;26.80;41.12;97973.09;4500791;31;20083;-81
2022/08/05 04:06:05;;;;;;;9.68;4.50;;;;;;;27.25;39.71;97969.81;4501264;31;20104;-80
2022/08/05 04:08:35;;;;;;;9.45;4.72;;;;;;;27.61;38.37;97972.75;4502387;31;20114;-80
2022/08/05 04:11:06;;;;;;;11.25;5.00;;;;;;;27.72;38.03;97979.50;4500617;31;20092;-81
2022/08/05 04:13:38;;;;;;;9.98;4.95;;;;;;;28.26;37.46;97976.78;4501129;31;20501;-80
2022/08/05 04:16:17;;;;;;;10.60;5.03;;;;;;;28.69;36.66;97979.72;4502285;31;20100;-80
2022/08/05 04:18:51;;;;;;;11.02;4.70;;;;;;;29.37;35.31;97981.31;4501890;31;20099;-81
2022/08/05 04:21:20;;;;;;;10.10;4.90;;;;;;;29.71;34.79;97982.53;4500885;31;20117;-80
2022/08/05 04:24:07;;;;;;;12.68;5.25;;;;;;;29.90;34.38;97977.41;4502374;31;20095;-81
2022/08/05 04:26:48;;;;;;;11.63;4.60;;;;;;;30.28;33.48;97986.97;4504264;31;20088;-81
2022/08/05 04:29:15;;;;;;;11.50;5.18;;;;;;;30.78;32.67;97981.44;4504056;31;20104;-81
2022/08/05 04:31:42;;;;;;;10.95;5.35;;;;;;;31.31;32.37;97983.59;4499069;31;153914;-81
2022/08/05 04:34:12;;;;;;;13.70;5.40;;;;;;;31.92;31.48;97976.44;4504123;31;20087;-80
2022/08/05 04:36:57;;;;;;;10.35;5.50;;;;;;;32.54;30.51;97977.09;4504142;31;20112;-80
2022/08/05 04:39:26;;;;;;;9.75;5.00;;;;;;;33.51;29.21;97978.91;4503606;31;20100;-81
2022/08/05 04:41:53;;;;;;;17.45;5.53;;;;;;;34.09;28.43;97981.47;4504129;31;20494;-81
2022/08/05 04:44:21;;;;;;;14.98;4.60;;;;;;;34.51;28.20;97984.44;4503938;31;20163;-81
2022/08/05 04:46:59;;;;;;;11.02;4.05;;;;;;;34.68;28.09;97982.03;4503672;31;20464;-81
2022/08/05 04:49:36;;;;;;;9.23;4.37;;;;;;;35.15;26.80;97975.16;4504049;31;20108;-80
2022/08/05 04:52:23;;;;;;;7.45;4.10;;;;;;;35.58;25.05;97976.91;4503590;31;20137;-81
2022/08/05 04:54:53;;;;;;;9.48;4.15;;;;;;;36.07;24.16;97977.69;4503925;31;20080;-81
2022/08/05 04:57:23;;;;;;;9.35;4.15;;;;;;;36.36;23.79;97984.06;4503805;31;20148;-81
2022/08/05 04:59:56;;;;;;;12.80;5.18;;;;;;;36.56;23.70;97983.72;4503705;31;20100;-81
2022/08/05 05:02:25;;;;;;;8.10;3.80;;;;;;;36.79;23.33;97986.38;4503945;31;20426;-81
2022/08/05 05:05:08;;;;;;;9.43;4.03;;;;;;;37.29;22.97;97980.53;4503742;31;20429;-81
2022/08/05 05:07:54;;;;;;;12.37;4.35;;;;;;;37.76;22.17;97977.69;4503584;31;20100;-82
2022/08/05 05:10:31;;;;;;;8.65;4.32;;;;;;;38.29;22.54;97989.97;4503942;31;20099;-81
2022/08/05 05:12:59;;;;;;;8.65;4.18;;;;;;;38.35;22.24;97983.56;4503970;31;20088;-81
2022/08/05 05:15:30;;;;;;;9.38;4.07;;;;;;;38.48;21.84;97978.66;4503685;31;20092;-81
2022/08/05 05:18:17;;;;;;;14.38;4.50;;;;;;;39.15;21.16;97983.16;4503860;31;20423;-81
2022/08/05 05:20:57;;;;;;;12.25;4.00;;;;;;;39.94;20.87;97985.38;4503568;31;20100;-82
2022/08/05 05:23:24;;;;;;;12.25;4.55;;;;;;;40.34;19.83;97984.13;4503705;31;20079;-81
2022/08/05 05:25:51;;;;;;;6.93;4.15;;;;;;;41.30;18.68;97992.06;4503891;31;20079;-81
2022/08/05 05:28:18;;;;;;;8.15;4.65;;;;;;;41.31;18.64;97994.50;4503257;31;20133;-82
2022/08/05 05:30:46;;;;;;;9.25;4.55;;;;;;;41.94;17.68;97989.00;4503574;31;20416;-81
2022/08/05 05:33:15;;;;;;;9.10;4.25;;;;;;;42.50;16.96;97993.62;4503650;31;20144;-81
2022/08/05 05:35:44;;;;;;;19.55;5.10;;;;;;;42.96;16.75;98000.66;4502129;31;20154;-81
2022/08/05 05:38:11;;;;;;;41.67;5.97;;;;;;;43.00;16.74;97999.00;4503653;31;20143;-81
2022/08/05 05:40:41;;;;;;;12.75;4.43;;;;;;;43.01;16.55;97995.22;4503603;31;20149;-81
2022/08/05 05:43:18;;;;;;;8.70;4.70;;;;;;;42.30;17.05;97991.75;4503343;31;20108;-81
2022/08/05 05:45:53;;;;;;;8.35;4.30;;;;;;;43.15;16.54;98000.84;4502490;31;20102;-81
2022/08/05 05:48:22;;;;;;;8.27;4.53;;;;;;;41.56;17.73;98004.59;4503062;31;20161;-81
2022/08/05 05:50:53;;;;;;;10.05;4.80;;;;;;;39.91;19.16;97989.41;4503674;31;20149;-81
2022/08/05 05:53:20;;;;;;;9.18;4.60;;;;;;;38.52;20.82;97997.03;4503523;31;20136;-81
2022/08/05 05:55:49;;;;;;;10.80;4.68;;;;;;;38.90;20.21;97990.88;4499239;31;20140;-81
2022/08/05 05:58:27;;;;;;;10.73;4.78;;;;;;;40.06;19.33;97990.66;4501971;31;20123;-83
2022/08/05 06:01:02;;;;;;;13.62;4.53;;;;;;;39.06;19.98;97990.84;4502960;31;20144;-82
2022/08/05 06:03:41;;;;;;;12.23;4.65;;;;;;;38.46;20.68;97980.78;4502692;31;20089;-82
2022/08/05 06:06:28;;;;;;;10.02;4.30;;;;;;;38.66;20.56;97988.37;4502274;31;20604;-83
2022/08/05 06:08:59;;;;;;;9.00;4.37;;;;;;;38.05;21.09;97986.53;4502769;31;20112;-82
2022/08/05 06:11:26;;;;;;;10.25;4.75;;;;;;;38.34;21.00;97987.31;4502373;31;20100;-81
2022/08/05 06:13:55;;;;;;;11.25;4.60;;;;;;;37.49;21.68;97980.13;4502571;31;20167;-81
2022/08/05 06:16:22;;;;;;;11.75;4.72;;;;;;;38.44;20.89;97982.09;4501783;31;20080;-80
2022/08/05 06:18:59;;;;;;;8.25;4.47;;;;;;;37.53;21.71;97979.38;4502610;31;20118;-81
2022/08/05 06:21:31;;;;;;;7.95;4.20;;;;;;;38.83;20.50;97991.06;4502765;31;20111;-80
2022/08/05 06:24:07;;;;;;;8.40;4.37;;;;;;;39.08;20.06;97993.28;4502446;31;20097;-79
2022/08/05 06:26:40;;;;;;;10.40;5.15;;;;;;;37.59;21.55;97989.19;4502198;31;20105;-80
2022/08/05 06:29:19;;;;;;;10.23;4.22;;;;;;;37.41;22.00;97989.37;4501819;31;20163;-79
2022/08/05 06:32:07;;;;;;;7.03;4.22;;;;;;;36.95;22.29;97990.28;4501647;31;20379;-79
2022/08/05 06:34:54;;;;;;;11.30;4.60;;;;;;;35.50;24.00;97986.09;4502141;31;20127;-79
2022/08/05 06:37:25;;;;;;;13.50;4.93;;;;;;;36.73;22.72;97993.53;4501971;31;20183;-80
2022/08/05 06:40:12;;;;;;;16.12;4.90;;;;;;;35.79;24.08;97989.84;4501825;31;20100;-79
2022/08/05 06:42:44;;;;;;;10.18;5.00;;;;;;;35.59;24.24;97992.78;4503160;31;20132;-79
2022/08/05 06:45:11;;;;;;;15.07;5.50;;;;;;;35.64;24.19;97986.75;4502729;31;20088;-80
2022/08/05 06:47:47;;;;;;;11.32;4.85;;;;;;;35.12;24.55;97989.03;4502654;31;20072;-81
2022/08/05 06:50:34;;;;;;;11.20;4.55;;;;;;;35.64;24.31;97989.44;4501501;31;20129;-81
2022/08/05 06:53:01;;;;;;;9.88;4.68;;;;;;;37.19;22.58;97983.78;4502737;31;20127;-81
2022/08/05 06:55:37;;;;;;;10.73;4.12;;;;;;;37.14;22.36;97990.97;4501960;31;20490;-81
2022/08/05 06:58:08;;;;;;;7.53;4.30;;;;;;;38.27;21.19;97995.56;4502697;31;20076;-82
2022/08/05 07:00:59;;;;;;;14.18;4.40;;;;;;;38.49;21.26;97992.94;4502870;31;20474;-81
2022/08/05 07:03:27;;;;;;;11.07;4.30;;;;;;;38.15;21.53;97989.41;4503114;31;20565;-81
2022/08/05 07:06:01;;;;;;;12.93;4.30;;;;;;;37.71;21.85;97991.03;4502839;31;20102;-81
2022/08/05 07:08:43;;;;;;;9.07;3.90;;;;;;;38.30;21.45;98000.47;4502891;31;20140;-81
2022/08/05 07:11:18;;;;;;;8.68;4.30;;;;;;;39.34;20.53;97995.25;4502953;31;20096;-80
2022/08/05 07:16:49;;;;;;;11.15;4.12;;;;;;;37.93;21.98;97994.69;4502919;31;20389;-80
2022/08/05 07:19:36;;;;;;;11.15;4.10;;;;;;;36.84;23.19;97991.94;4502551;31;20080;-81
2022/08/05 07:22:23;;;;;;;12.05;4.40;;;;;;;36.20;23.90;97985.53;4502622;31;20141;-81
2022/08/05 07:24:56;;;;;;;8.85;4.22;;;;;;;36.88;22.92;97986.88;4502836;31;20118;-82
2022/08/05 07:27:23;;;;;;;6.62;3.83;;;;;;;39.09;20.69;97986.81;4502594;31;20092;-81
2022/08/05 07:29:55;;;;;;;9.25;3.92;;;;;;;37.79;21.78;97980.72;4502663;31;20414;-81
2022/08/05 07:32:42;;;;;;;6.65;3.70;;;;;;;37.53;21.89;97987.47;4503056;31;20104;-81
2022/08/05 07:35:16;;;;;;;8.20;3.80;;;;;;;40.15;19.37;97987.22;4502438;31;20109;-82
2022/08/05 07:38:03;;;;;;;7.82;3.53;;;;;;;39.39;19.74;97983.72;4502493;31;20137;-82
2022/08/05 07:40:30;;;;;;;8.93;3.90;;;;;;;39.62;19.32;97979.94;4502293;31;20430;-82
2022/08/05 07:43:00;;;;;;;9.20;3.12;;;;;;;41.39;17.35;97978.84;4502842;31;20491;-81
2022/08/05 07:45:45;;;;;;;5.22;2.55;;;;;;;40.50;18.42;97980.47;4502654;31;20088;-81
2022/08/05 07:48:23;;;;;;;5.00;2.15;;;;;;;41.37;15.88;97975.56;4502271;31;20075;-81
2022/08/05 07:51:11;;;;;;;5.30;2.70;;;;;;;41.08;15.90;97983.28;4502660;31;20554;-80
2022/08/05 07:53:58;;;;;;;5.82;2.65;;;;;;;40.00;16.94;97979.00;4502659;31;20148;-80
2022/08/05 07:56:27;;;;;;;5.12;2.70;;;;;;;40.64;16.76;97978.97;4502244;31;20441;-80
2022/08/05 07:59:14;;;;;;;5.10;2.80;;;;;;;39.65;17.51;97986.72;4502797;31;20137;-83
2022/08/05 08:01:41;;;;;;;3.95;2.33;;;;;;;39.28;17.72;97977.38;4504055;31;20127;-80
2022/08/05 08:04:23;;;;;;;5.15;2.80;;;;;;;39.92;17.25;97980.25;4503140;31;20421;-80
2022/08/05 08:07:04;;;;;;;4.90;2.50;;;;;;;39.58;17.42;97979.63;4503528;31;20091;-80
2022/08/05 08:09:33;;;;;;;4.65;2.40;;;;;;;39.79;17.24;97977.16;4503654;31;20463;-80
2022/08/05 08:12:03;;;;;;;5.03;2.67;;;;;;;39.78;16.69;97970.12;4504279;31;20445;-80
2022/08/05 08:14:46;;;;;;;5.87;2.50;;;;;;;40.44;16.48;97966.13;4504084;31;20100;-80
2022/08/05 08:17:13;;;;;;;7.03;2.58;;;;;;;41.35;15.52;97975.03;4503985;31;20092;-80
2022/08/05 08:19:43;;;;;;;6.47;2.42;;;;;;;41.00;15.88;97974.59;4504145;31;20498;-79
2022/08/05 08:22:33;;;;;;;5.32;2.78;;;;;;;40.76;16.56;97974.16;4504009;31;20076;-79
2022/08/05 08:25:00;;;;;;;8.50;2.55;;;;;;;40.93;16.15;97975.91;4502742;31;20118;-79
2022/08/05 08:27:29;;;;;;;3.85;2.60;;;;;;;40.85;16.05;97982.66;4504190;31;20105;-79
2022/08/05 08:30:11;;;;;;;7.18;2.72;;;;;;;40.45;16.33;97980.47;4503740;31;20092;-78
2022/08/05 08:32:58;;;;;;;5.85;2.58;;;;;;;40.45;16.20;97972.34;4503769;31;20479;-80
2022/08/05 08:35:30;;;;;;;5.37;2.42;;;;;;;40.73;16.71;97979.31;4503927;31;20453;-79
2022/08/05 08:38:06;;;;;;;6.55;2.50;;;;;;;40.03;17.15;97983.88;4503858;31;20454;-80
2022/08/05 08:40:34;;;;;;;4.70;2.53;;;;;;;40.62;17.02;97974.88;4503943;31;20442;-80
2022/08/05 08:43:03;;;;;;;5.03;2.60;;;;;;;41.56;16.26;97974.81;4504089;31;20148;-80
2022/08/05 08:45:51;;;;;;;4.00;2.58;;;;;;;40.89;17.00;97981.03;4503540;31;20084;-80
2022/08/05 08:48:19;;;;;;;5.78;2.50;;;;;;;41.15;16.62;97978.44;4503935;31;20099;-80
2022/08/05 08:51:06;;;;;;;7.72;2.83;;;;;;;40.95;16.57;97981.87;4503476;31;20356;-79
2022/08/05 08:53:53;;;;;;;5.50;2.40;;;;;;;40.32;17.23;97980.87;4502905;31;20088;-81
2022/08/05 08:56:22;;;;;;;5.60;2.70;;;;;;;40.79;16.85;97982.84;4502797;31;20129;-80
2022/08/05 08:58:52;;;;;;;3.42;2.40;;;;;;;41.28;16.15;97980.69;4503392;31;20374;-81
2022/08/05 09:01:20;;;;;;;4.35;2.75;;;;;;;40.93;16.51;97968.59;4503630;31;20107;-79
2022/08/05 09:03:54;;;;;;;5.78;2.78;;;;;;;41.45;16.44;97969.62;4503683;31;20344;-79
2022/08/05 09:06:27;;;;;;;4.05;2.80;;;;;;;40.83;17.04;97979.31;4503548;31;20378;-79
2022/08/05 09:08:58;;;;;;;5.90;2.85;;;;;;;40.80;16.92;97979.88;4503717;31;20096;-81
2022/08/05 09:11:26;;;;;;;3.97;2.50;;;;;;;41.07;16.59;97973.56;4502325;31;20480;-81
2022/08/05 09:14:13;;;;;;;4.97;2.55;;;;;;;41.02;16.57;97972.44;4502691;31;20089;-80
2022/08/05 09:17:01;;;;;;;6.45;3.00;;;;;;;40.83;16.92;97973.91;4503835;31;20107;-82
2022/08/05 09:19:29;;;;;;;4.45;2.65;;;;;;;41.38;15.98;97969.09;4503253;31;20095;-82
2022/08/05 09:22:16;;;;;;;6.90;2.62;;;;;;;41.57;16.05;97970.22;4502616;31;20131;-81
2022/08/05 09:25:01;;;;;;;6.50;3.00;;;;;;;41.26;16.41;97980.09;4503613;31;20083;-81
2022/08/05 09:27:48;;;;;;;5.05;2.50;;;;;;;40.71;16.91;97979.53;4503144;31;20141;-81
2022/08/05 09:30:33;;;;;;;6.75;2.87;;;;;;;40.94;16.35;97978.38;4503593;31;20091;-81
2022/08/05 09:33:01;;;;;;;6.50;3.03;;;;;;;40.31;16.89;97966.56;4502202;31;20179;-81
2022/08/05 09:35:30;;;;;;;5.60;2.70;;;;;;;40.61;16.65;97967.84;4503455;31;20072;-81
2022/08/05 09:37:59;;;;;;;5.43;2.83;;;;;;;40.72;16.19;97966.81;4503762;31;20237;-82
2022/08/05 09:40:44;;;;;;;12.10;3.20;;;;;;;40.37;17.19;97972.78;4503201;31;20415;-81
2022/08/05 09:43:35;;;;;;;4.28;2.70;;;;;;;40.19;17.33;97969.41;4503491;31;20158;-81
2022/08/05 09:46:26;;;;;;;4.82;2.85;;;;;;;40.33;16.93;97958.19;4503401;31;20072;-81
2022/08/05 09:48:58;;;;;;;4.53;2.33;;;;;;;40.80;16.58;97958.22;4501923;31;20167;-82
2022/08/05 09:51:44;;;;;;;5.97;2.80;;;;;;;40.96;16.45;97959.16;4503627;31;20131;-80
2022/08/05 09:54:16;;;;;;;6.30;2.70;;;;;;;41.43;16.06;97959.06;4503150;31;20536;-81
2022/08/05 09:56:55;;;;;;;4.28;2.50;;;;;;;41.88;15.40;97952.13;4503201;31;20147;-80
2022/08/05 09:59:27;;;;;;;5.07;2.58;;;;;;;40.94;16.25;97951.31;4503551;31;20126;-80
2022/08/05 10:01:54;;;;;;;5.57;2.78;;;;;;;41.08;16.80;97950.81;4503082;31;20152;-79
2022/08/05 10:04:34;;;;;;;4.57;2.70;;;;;;;41.12;16.24;97954.59;4503233;31;20092;-80
2022/08/05 10:07:06;;;;;;;3.62;2.20;;;;;;;41.66;15.79;97949.66;4503524;31;20080;-79
2022/08/05 10:09:54;;;;;;;3.58;2.47;;;;;;;42.14;15.68;97950.28;4501819;31;20100;-79
2022/08/05 10:12:50;;;;;;;5.50;2.55;;;;;;;41.98;15.37;97946.72;4503319;31;20400;-79
2022/08/05 10:15:21;;;;;;;3.97;2.60;;;;;;;40.07;16.95;97944.47;4503018;31;20092;-79
2022/08/05 10:18:21;;;;;;;4.93;2.70;;;;;;;40.44;16.77;97943.69;4503344;31;20449;-79
2022/08/05 10:21:03;;;;;;;4.15;2.75;;;;;;;40.44;17.13;97939.09;4503382;31;20100;-80
2022/08/05 10:23:37;;;;;;;4.97;2.62;;;;;;;40.84;16.43;97940.41;4502392;31;20556;-79
2022/08/05 10:26:24;;;;;;;5.37;2.80;;;;;;;40.84;16.93;97937.72;4502408;31;20203;-79
2022/08/05 10:28:59;;;;;;;5.47;2.60;;;;;;;41.46;15.87;97931.47;4502886;31;20098;-79
2022/08/05 10:31:26;;;;;;;4.22;2.70;;;;;;;41.49;15.66;97927.44;4503123;31;20104;-78
2022/08/05 10:34:13;;;;;;;5.15;2.70;;;;;;;40.92;16.20;97926.38;4503368;31;20160;-79
2022/08/05 10:36:42;;;;;;;5.70;2.70;;;;;;;41.15;16.27;97929.72;4502845;31;20092;-79
2022/08/05 10:39:30;;;;;;;8.15;2.92;;;;;;;41.76;15.83;97921.78;4501929;31;20083;-79
2022/08/05 10:42:23;;;;;;;5.20;2.67;;;;;;;40.42;16.82;97906.09;4501879;31;20088;-79
2022/08/05 10:45:00;;;;;;;7.65;2.75;;;;;;;39.83;17.52;97918.84;4501553;31;20119;-78
2022/08/05 10:47:48;;;;;;;6.80;3.05;;;;;;;40.60;17.03;97915.66;4503103;31;20513;-79
2022/08/05 10:51:05;;;;;;;4.85;2.87;;;;;;;39.57;17.95;97913.22;4502621;31;20075;-79
2022/08/05 10:53:55;;;;;;;5.87;2.80;;;;;;;39.54;18.32;97918.25;4503069;31;20132;-78
2022/08/05 10:56:28;;;;;;;5.07;2.40;;;;;;;40.24;16.80;97903.78;4503099;31;20111;-78
2022/08/05 10:58:59;;;;;;;7.60;2.87;;;;;;;40.92;16.61;97903.94;4502503;31;20106;-79
2022/08/05 11:01:45;;;;;;;6.25;2.80;;;;;;;40.96;17.02;97913.16;4503129;31;20163;-78
2022/08/05 11:04:28;;;;;;;5.95;3.08;;;;;;;40.09;17.34;97901.81;4502791;31;20142;-79
2022/08/05 11:06:59;;;;;;;5.00;2.90;;;;;;;39.82;17.74;97907.22;4502990;31;20379;-78
2022/08/05 11:09:35;;;;;;;6.90;3.00;;;;;;;39.82;18.19;97901.81;4502762;31;20171;-78
2022/08/05 11:12:39;;;;;;;5.55;3.00;;;;;;;40.09;17.54;97904.50;4502623;31;20140;-78
2022/08/05 11:15:15;;;;;;;6.68;2.78;;;;;;;40.37;17.83;97900.62;4502605;31;20156;-79
2022/08/05 11:17:54;;;;;;;5.75;2.80;;;;;;;39.60;18.41;97899.19;4502982;31;20091;-79
2022/08/05 11:20:44;;;;;;;4.78;2.87;;;;;;;40.91;17.06;97897.72;4502910;31;20450;-80
2022/08/05 11:23:33;;;;;;;5.73;2.90;;;;;;;39.97;17.73;97893.00;4502809;31;20080;-79
2022/08/05 11:26:21;;;;;;;5.20;2.85;;;;;;;40.97;16.73;97898.56;4502465;31;20182;-80
2022/08/05 11:29:00;;;;;;;6.80;2.72;;;;;;;39.49;17.89;97897.44;4502727;31;20159;-80
2022/08/05 11:31:43;;;;;;;5.18;2.67;;;;;;;38.97;18.34;97886.31;4502799;31;20098;-79
2022/08/05 11:34:39;;;;;;;7.80;3.12;;;;;;;40.34;17.36;97895.75;4502575;31;20080;-79
2022/08/05 11:37:38;;;;;;;9.27;3.08;;;;;;;39.84;18.33;97891.56;4502661;31;20093;-79
2022/08/05 11:41:00;;;;;;;7.25;2.80;;;;;;;38.88;18.80;97883.25;4502651;31;20567;-79
2022/08/05 11:43:56;;;;;;;5.12;2.83;;;;;;;39.97;17.83;97892.19;4502547;31;20103;-79
2022/08/05 11:46:46;;;;;;;6.37;2.80;;;;;;;39.60;17.83;97883.00;4502374;31;20080;-78
2022/08/05 11:49:33;;;;;;;4.87;2.50;;;;;;;39.89;17.90;97888.91;4502572;31;20160;-79
2022/08/05 11:52:00;;;;;;;5.55;2.67;;;;;;;40.81;16.36;97889.53;4502504;31;20142;-78
2022/08/05 11:54:39;;;;;;;8.52;2.62;;;;;;;40.82;16.57;97893.84;4502150;31;20143;-79
2022/08/05 11:57:07;;;;;;;4.93;2.70;;;;;;;40.87;16.44;97890.41;4502205;31;20143;-79
2022/08/05 11:59:51;;;;;;;5.45;2.80;;;;;;;41.47;15.72;97886.25;4502263;31;20114;-79
2022/08/05 12:02:25;;;;;;;5.15;2.60;;;;;;;42.23;15.22;97893.62;4501994;31;20092;-79
2022/08/05 12:05:02;;;;;;;7.25;2.78;;;;;;;41.39;15.71;97890.31;4502272;31;20092;-79
2022/08/05 12:07:43;;;;;;;5.18;2.72;;;;;;;41.33;15.73;97894.88;4501912;31;20072;-79
2022/08/05 12:10:31;;;;;;;4.37;2.62;;;;;;;40.25;16.69;97877.56;4501938;31;20503;-78
2022/08/05 12:13:12;;;;;;;6.05;2.60;;;;;;;42.30;15.42;97894.16;4502167;31;20100;-78
2022/08/05 12:15:45;;;;;;;6.15;2.70;;;;;;;41.07;16.13;97876.94;4501861;31;20102;-79
2022/08/05 12:18:18;;;;;;;6.62;2.85;;;;;;;40.02;16.66;97879.59;4502022;31;20080;-79
2022/08/05 12:20:49;;;;;;;8.60;2.50;;;;;;;40.04;16.65;97882.84;4501929;31;20489;-79